Time;durP1;ratioP1;P1;durP2;ratioP2;P2;SDS_P1;SDS_P2;PMS_P1;PMS_P2;Temp;Humidity;BMP_temperature;BMP_pressure;BME280_temperature;BME280_humidity;BME280_pressure;Samples;Min_cycle;Max_cycle;Signal;HPM_P1;HPM_P2
2022/07/03 00:01:26;;;;;;;0.00;0.00;;;19.10;63.10;;;;;;5079997;22;114545;-61
2022/07/03 00:03:29;;;;;;;0.10;0.00;;;19.10;63.60;;;;;;5079694;22;114848;-60
2022/07/03 00:05:33;;;;;;;0.00;0.00;;;19.10;64.20;;;;;;5080530;22;114910;-61
2022/07/03 00:07:37;;;;;;;0.00;0.00;;;19.00;64.40;;;;;;5079916;22;113884;-61
2022/07/03 00:09:40;;;;;;;0.00;0.00;;;19.00;64.90;;;;;;5079498;22;115191;-61
2022/07/03 00:11:44;;;;;;;0.00;0.00;;;19.00;65.30;;;;;;5080038;22;114682;-61
2022/07/03 00:13:51;;;;;;;0.00;0.00;;;19.00;65.60;;;;;;5078218;22;114012;-60
2022/07/03 00:15:54;;;;;;;0.00;0.00;;;19.00;66.10;;;;;;5080113;22;114652;-61
2022/07/03 00:17:57;;;;;;;0.00;0.00;;;18.90;66.30;;;;;;5079295;22;114897;-60
2022/07/03 00:20:00;;;;;;;0.00;0.00;;;18.90;66.60;;;;;;5079428;22;115119;-60
2022/07/03 00:22:05;;;;;;;0.00;0.00;;;18.90;66.90;;;;;;5079889;22;115297;-61
2022/07/03 00:24:15;;;;;;;0.00;0.00;;;18.90;67.10;;;;;;5079364;22;113757;-60
2022/07/03 00:26:22;;;;;;;0.00;0.00;;;18.90;67.40;;;;;;5080153;22;114710;-61
2022/07/03 00:28:26;;;;;;;0.00;0.00;;;18.80;67.60;;;;;;5080454;22;113976;-60
2022/07/03 00:30:30;;;;;;;0.00;0.00;;;18.80;67.60;;;;;;5081053;22;114914;-61
2022/07/03 00:32:34;;;;;;;0.00;0.00;;;18.80;68.00;;;;;;5081067;22;115392;-61
2022/07/03 00:34:38;;;;;;;0.00;0.00;;;18.80;68.20;;;;;;5081136;22;113987;-60
2022/07/03 00:36:42;;;;;;;0.00;0.00;;;18.80;68.30;;;;;;5080668;22;115037;-60
2022/07/03 00:38:46;;;;;;;0.00;0.00;;;18.70;68.50;;;;;;5080217;22;115183;-61
2022/07/03 00:40:49;;;;;;;0.00;0.00;;;18.70;68.60;;;;;;5081532;22;115646;-61
2022/07/03 00:42:52;;;;;;;0.00;0.00;;;18.70;68.80;;;;;;5080625;22;115652;-61
2022/07/03 00:44:57;;;;;;;0.00;0.00;;;18.60;69.00;;;;;;5081634;22;114926;-60
2022/07/03 00:47:04;;;;;;;0.00;0.00;;;18.60;69.30;;;;;;5081005;22;115134;-61
2022/07/03 00:49:09;;;;;;;0.00;0.00;;;18.60;69.50;;;;;;5081291;22;115823;-61
2022/07/03 00:51:16;;;;;;;0.00;0.00;;;18.50;69.20;;;;;;5080284;22;114815;-61
2022/07/03 00:53:28;;;;;;;0.05;0.00;;;18.40;69.10;;;;;;5079830;22;114728;-61
2022/07/03 00:55:31;;;;;;;0.00;0.00;;;18.40;68.90;;;;;;5081534;22;115165;-61
2022/07/03 00:57:40;;;;;;;0.00;0.00;;;18.30;68.70;;;;;;5080611;22;115356;-61
2022/07/03 00:59:44;;;;;;;0.00;0.00;;;18.30;68.50;;;;;;5079906;22;115365;-61
2022/07/03 01:01:55;;;;;;;0.00;0.00;;;18.20;68.20;;;;;;5078385;22;115353;-61
2022/07/03 01:04:10;;;;;;;0.00;0.00;;;18.10;67.90;;;;;;5080682;22;114710;-60
2022/07/03 01:06:16;;;;;;;0.00;0.00;;;18.10;67.70;;;;;;5081732;22;114837;-61
2022/07/03 01:08:24;;;;;;;0.00;0.00;;;18.00;67.50;;;;;;5080795;22;115207;-61
2022/07/03 01:10:38;;;;;;;0.00;0.00;;;18.00;67.50;;;;;;5080438;22;115651;-61
2022/07/03 01:12:55;;;;;;;0.00;0.00;;;18.00;67.60;;;;;;5080579;22;114580;-61
2022/07/03 01:15:06;;;;;;;0.00;0.00;;;18.00;67.60;;;;;;5080308;22;115860;-60
2022/07/03 01:17:18;;;;;;;0.00;0.00;;;18.00;67.50;;;;;;5080177;22;114882;-60
2022/07/03 01:19:37;;;;;;;0.00;0.00;;;18.00;68.00;;;;;;5080883;22;114881;-60
2022/07/03 01:21:49;;;;;;;0.00;0.00;;;18.00;67.60;;;;;;5080636;22;114855;-61
2022/07/03 01:24:18;;;;;;;0.00;0.00;;;18.00;67.40;;;;;;5080209;22;114202;-61
2022/07/03 01:26:27;;;;;;;0.00;0.00;;;18.00;67.70;;;;;;5080673;22;114953;-60
2022/07/03 01:28:33;;;;;;;0.00;0.00;;;18.00;67.50;;;;;;5079287;22;113949;-61
2022/07/03 01:30:39;;;;;;;0.00;0.00;;;18.00;67.50;;;;;;5081059;22;114742;-61
2022/07/03 01:32:44;;;;;;;0.00;0.00;;;17.90;67.50;;;;;;5080533;22;114886;-61
2022/07/03 01:34:52;;;;;;;0.00;0.00;;;17.90;67.70;;;;;;5080855;22;115270;-61
2022/07/03 01:36:58;;;;;;;0.00;0.00;;;17.90;67.80;;;;;;5079475;22;114838;-60
2022/07/03 01:39:03;;;;;;;0.00;0.00;;;17.90;67.90;;;;;;5080931;22;114946;-61
2022/07/03 01:41:08;;;;;;;0.00;0.00;;;17.90;68.00;;;;;;5080773;22;114662;-61
2022/07/03 01:43:13;;;;;;;0.00;0.00;;;17.80;68.10;;;;;;5081171;22;115285;-61
2022/07/03 01:45:19;;;;;;;0.00;0.00;;;17.80;68.20;;;;;;5080819;22;114739;-61
2022/07/03 01:47:25;;;;;;;0.00;0.00;;;17.80;68.40;;;;;;5080740;22;115787;-60
2022/07/03 01:49:33;;;;;;;0.00;0.00;;;17.80;68.50;;;;;;5081096;22;114856;-61
2022/07/03 01:51:39;;;;;;;0.00;0.00;;;17.80;68.50;;;;;;5081168;22;114863;-61
2022/07/03 01:53:47;;;;;;;0.00;0.00;;;17.70;68.60;;;;;;5081017;22;114733;-60
2022/07/03 01:55:51;;;;;;;0.00;0.00;;;17.80;68.70;;;;;;5078613;22;114284;-61
2022/07/03 01:57:55;;;;;;;0.00;0.00;;;17.70;68.70;;;;;;5081313;22;114811;-61
2022/07/03 02:00:01;;;;;;;0.00;0.00;;;17.70;68.80;;;;;;5080474;22;114767;-61
2022/07/03 02:02:22;;;;;;;0.00;0.00;;;17.70;69.00;;;;;;5078137;22;113813;-61
2022/07/03 02:04:31;;;;;;;0.00;0.00;;;17.70;69.10;;;;;;5081204;22;115312;-61
2022/07/03 02:06:41;;;;;;;0.00;0.00;;;17.70;69.10;;;;;;5054527;23;115483;-61
2022/07/03 02:08:50;;;;;;;0.00;0.00;;;17.60;69.30;;;;;;5080399;22;115360;-61
2022/07/03 02:11:17;;;;;;;0.00;0.00;;;17.60;69.20;;;;;;5080597;22;115586;-61
2022/07/03 02:13:24;;;;;;;0.00;0.00;;;17.60;69.40;;;;;;5079946;22;114979;-61
2022/07/03 02:15:31;;;;;;;0.00;0.00;;;17.60;69.60;;;;;;5080355;22;114807;-61
2022/07/03 02:17:38;;;;;;;0.00;0.00;;;17.60;69.60;;;;;;5078430;22;113827;-60
2022/07/03 02:19:54;;;;;;;0.00;0.00;;;17.60;69.70;;;;;;5080707;22;115324;-60
2022/07/03 02:21:58;;;;;;;0.00;0.00;;;17.60;70.00;;;;;;5080506;22;115237;-60
2022/07/03 02:24:17;;;;;;;0.00;0.00;;;17.60;70.00;;;;;;5079480;22;114839;-61
2022/07/03 02:26:25;;;;;;;0.00;0.00;;;17.60;70.50;;;;;;5078697;22;114885;-61
2022/07/03 02:28:50;;;;;;;0.00;0.00;;;17.60;70.40;;;;;;5080623;22;114898;-60
2022/07/03 02:31:03;;;;;;;0.00;0.00;;;17.60;70.60;;;;;;5079144;22;114766;-61
2022/07/03 02:33:07;;;;;;;;;;;17.50;70.50;;;;;;5081035;22;114856;-59
2022/07/03 02:35:13;;;;;;;0.00;0.00;;;17.50;71.40;;;;;;5082231;22;114625;-58
2022/07/03 02:37:20;;;;;;;0.00;0.00;;;17.50;70.20;;;;;;5081265;22;115243;-61
2022/07/03 02:39:28;;;;;;;0.00;0.00;;;17.50;70.30;;;;;;5080145;22;114657;-58
2022/07/03 02:41:43;;;;;;;0.00;0.00;;;17.50;70.40;;;;;;5054059;23;114694;-59
2022/07/03 02:43:55;;;;;;;0.00;0.00;;;17.40;70.90;;;;;;5054636;23;114913;-58
2022/07/03 02:46:48;;;;;;;0.00;0.00;;;17.40;70.80;;;;;;5080053;22;114392;-61
2022/07/03 02:48:36;;;;;;;0.08;0.00;;;17.40;71.00;;;;;;5079988;22;115356;-60
2022/07/03 02:50:42;;;;;;;0.00;0.00;;;17.40;71.00;;;;;;5080486;22;114063;-60
2022/07/03 02:52:55;;;;;;;0.25;0.00;;;17.40;71.00;;;;;;5080383;22;114040;-61
2022/07/03 02:55:03;;;;;;;0.00;0.00;;;17.50;71.30;;;;;;5080544;22;114852;-61
2022/07/03 02:57:08;;;;;;;0.00;0.00;;;17.50;71.30;;;;;;5080744;22;114797;-60
2022/07/03 02:59:23;;;;;;;0.00;0.00;;;17.50;71.30;;;;;;5078726;22;113948;-61
2022/07/03 03:01:34;;;;;;;0.00;0.00;;;17.50;71.80;;;;;;5079620;22;114989;-61
2022/07/03 03:03:43;;;;;;;0.00;0.00;;;17.50;71.90;;;;;;5079977;22;114751;-61
2022/07/03 03:05:47;;;;;;;0.00;0.00;;;17.50;71.80;;;;;;5080501;22;113565;-60
2022/07/03 03:08:02;;;;;;;0.00;0.00;;;17.50;71.80;;;;;;5080593;22;114642;-61
2022/07/03 03:10:06;;;;;;;0.00;0.00;;;17.50;71.80;;;;;;5078357;22;115325;-59
2022/07/03 03:12:10;;;;;;;0.00;0.00;;;17.50;71.60;;;;;;5078748;22;113750;-60
2022/07/03 03:14:15;;;;;;;0.00;0.00;;;17.50;71.60;;;;;;5080849;22;114798;-61
2022/07/03 03:16:18;;;;;;;0.00;0.00;;;17.40;71.60;;;;;;5080195;22;114742;-61
2022/07/03 03:18:27;;;;;;;0.00;0.00;;;17.40;71.60;;;;;;5078934;22;113782;-61
2022/07/03 03:20:32;;;;;;;0.00;0.00;;;17.40;71.80;;;;;;5080383;22;114583;-61
2022/07/03 03:22:45;;;;;;;0.00;0.00;;;17.30;71.70;;;;;;5080041;22;114724;-61
2022/07/03 03:24:54;;;;;;;0.00;0.00;;;17.20;72.20;;;;;;5081338;22;115203;-61
2022/07/03 03:26:58;;;;;;;0.00;0.00;;;17.20;72.20;;;;;;5080126;22;114558;-61
2022/07/03 03:29:02;;;;;;;0.05;0.00;;;17.20;72.30;;;;;;5080176;22;113870;-61
2022/07/03 03:31:08;;;;;;;0.00;0.00;;;17.10;72.50;;;;;;5079829;22;114883;-60
2022/07/03 03:33:12;;;;;;;0.00;0.00;;;17.10;72.60;;;;;;5080196;22;114625;-61
2022/07/03 03:35:16;;;;;;;0.00;0.00;;;17.10;72.60;;;;;;5081151;22;114830;-61
2022/07/03 03:37:19;;;;;;;0.00;0.00;;;17.10;72.80;;;;;;5078145;22;114039;-60
2022/07/03 03:39:23;;;;;;;0.00;0.00;;;17.00;73.00;;;;;;5080475;22;114733;-60
2022/07/03 03:41:26;;;;;;;0.00;0.00;;;17.00;73.10;;;;;;5079787;22;113728;-61
2022/07/03 03:43:30;;;;;;;0.00;0.00;;;16.90;73.20;;;;;;5079345;22;114875;-61
2022/07/03 03:45:33;;;;;;;0.00;0.00;;;16.90;73.30;;;;;;5053462;23;115410;-61
2022/07/03 03:47:36;;;;;;;0.20;0.00;;;16.90;73.40;;;;;;5079420;22;114716;-59
2022/07/03 03:49:39;;;;;;;0.00;0.00;;;16.90;73.50;;;;;;5079763;22;115041;-59
2022/07/03 03:51:45;;;;;;;0.00;0.00;;;16.90;73.60;;;;;;5080126;22;115050;-59
2022/07/03 03:53:48;;;;;;;0.10;0.10;;;16.80;73.90;;;;;;5079391;22;114634;-59
2022/07/03 03:56:02;;;;;;;0.00;0.00;;;16.80;73.90;;;;;;5080236;22;115718;-59
2022/07/03 03:58:05;;;;;;;0.00;0.00;;;16.80;74.10;;;;;;5080020;22;115907;-59
2022/07/03 04:00:09;;;;;;;0.00;0.00;;;16.90;74.10;;;;;;5079090;22;113625;-59
2022/07/03 04:02:15;;;;;;;0.00;0.00;;;16.90;74.20;;;;;;5080230;22;114609;-59
2022/07/03 04:04:21;;;;;;;0.00;0.00;;;16.80;74.20;;;;;;5081537;22;115451;-59
2022/07/03 04:06:24;;;;;;;0.00;0.00;;;16.80;74.40;;;;;;5080853;22;114653;-59
2022/07/03 04:08:29;;;;;;;0.00;0.00;;;16.80;74.40;;;;;;5078924;22;116486;-59
2022/07/03 04:10:32;;;;;;;0.00;0.00;;;16.70;74.70;;;;;;5080922;22;115382;-59
2022/07/03 04:12:35;;;;;;;0.00;0.00;;;16.70;74.90;;;;;;5080307;22;113959;-59
2022/07/03 04:14:38;;;;;;;0.00;0.00;;;16.80;75.00;;;;;;5078042;22;114352;-59
2022/07/03 04:16:42;;;;;;;0.00;0.00;;;16.80;75.10;;;;;;5053631;23;117182;-59
2022/07/03 04:18:45;;;;;;;0.10;0.00;;;16.90;75.20;;;;;;5079655;22;114180;-59
2022/07/03 04:20:48;;;;;;;0.00;0.00;;;16.90;75.10;;;;;;5054398;23;114921;-60
2022/07/03 04:22:51;;;;;;;0.00;0.00;;;16.90;75.10;;;;;;5081407;22;114628;-60
2022/07/03 04:24:56;;;;;;;0.00;0.00;;;17.00;75.20;;;;;;5080881;22;114861;-60
2022/07/03 04:26:59;;;;;;;0.00;0.00;;;17.00;75.40;;;;;;5081242;22;114691;-60
2022/07/03 04:29:02;;;;;;;0.00;0.00;;;17.10;75.50;;;;;;5054491;23;114813;-60
2022/07/03 04:31:05;;;;;;;0.00;0.00;;;17.10;75.40;;;;;;5081040;22;116003;-60
2022/07/03 04:33:08;;;;;;;0.00;0.00;;;17.20;75.40;;;;;;5080480;22;114862;-60
2022/07/03 04:35:11;;;;;;;0.10;0.00;;;17.30;75.20;;;;;;5080957;22;114695;-60
2022/07/03 04:37:15;;;;;;;0.00;0.00;;;17.40;75.10;;;;;;5080653;22;114748;-60
2022/07/03 04:39:18;;;;;;;0.00;0.00;;;17.40;74.80;;;;;;5081333;22;114812;-60
2022/07/03 04:41:22;;;;;;;0.00;0.00;;;17.50;74.60;;;;;;5080138;22;114027;-61
2022/07/03 04:43:25;;;;;;;0.00;0.00;;;17.50;74.20;;;;;;5080939;22;114744;-62
2022/07/03 04:45:29;;;;;;;0.00;0.00;;;17.60;73.90;;;;;;5080618;22;114808;-60
2022/07/03 04:47:32;;;;;;;0.00;0.00;;;17.60;73.50;;;;;;5079800;22;114359;-60
2022/07/03 04:49:35;;;;;;;0.00;0.00;;;17.70;73.40;;;;;;5080479;22;113875;-60
2022/07/03 04:51:38;;;;;;;0.00;0.00;;;17.70;73.10;;;;;;5080497;22;114836;-60
2022/07/03 04:53:41;;;;;;;0.00;0.00;;;17.70;72.90;;;;;;5081096;22;114804;-60
2022/07/03 04:55:44;;;;;;;0.00;0.00;;;17.70;72.70;;;;;;5080969;22;114740;-60
2022/07/03 04:57:49;;;;;;;0.08;0.00;;;17.70;72.50;;;;;;5080379;22;114107;-60
2022/07/03 04:59:52;;;;;;;0.00;0.00;;;17.80;72.50;;;;;;5080592;22;114835;-60
2022/07/03 05:01:55;;;;;;;0.00;0.00;;;17.80;72.40;;;;;;5080446;22;114826;-60
2022/07/03 05:03:58;;;;;;;0.00;0.00;;;17.80;72.30;;;;;;5081304;22;114731;-60
2022/07/03 05:06:01;;;;;;;0.00;0.00;;;17.90;72.30;;;;;;5080652;22;114784;-61
2022/07/03 05:08:05;;;;;;;0.00;0.00;;;17.90;72.00;;;;;;5081265;22;114801;-60
2022/07/03 05:10:09;;;;;;;0.00;0.00;;;17.90;71.80;;;;;;5080263;22;114742;-60
2022/07/03 05:12:12;;;;;;;0.00;0.00;;;18.00;72.30;;;;;;5079460;22;113668;-60
2022/07/03 05:14:17;;;;;;;0.00;0.00;;;18.00;71.50;;;;;;5081151;22;114825;-60
2022/07/03 05:16:20;;;;;;;0.00;0.00;;;18.10;71.40;;;;;;5081019;22;114332;-60
2022/07/03 05:18:23;;;;;;;0.00;0.00;;;18.20;71.40;;;;;;5080638;22;115372;-60
2022/07/03 05:20:28;;;;;;;0.00;0.00;;;18.30;71.20;;;;;;5081399;22;114734;-60
2022/07/03 05:22:31;;;;;;;0.00;0.00;;;18.30;71.50;;;;;;5081487;22;114727;-60
2022/07/03 05:24:34;;;;;;;0.00;0.00;;;18.40;70.80;;;;;;5053735;23;117366;-60
2022/07/03 05:26:37;;;;;;;0.05;0.00;;;18.40;70.60;;;;;;5080702;22;114881;-60
2022/07/03 05:28:41;;;;;;;0.00;0.00;;;18.50;70.40;;;;;;5080430;22;115016;-60
2022/07/03 05:30:45;;;;;;;0.00;0.00;;;18.60;70.20;;;;;;5081131;22;114723;-60
2022/07/03 05:32:48;;;;;;;0.00;0.00;;;18.60;70.00;;;;;;5080043;22;114796;-60
2022/07/03 05:34:51;;;;;;;0.00;0.00;;;18.60;69.90;;;;;;5079962;22;113893;-61
2022/07/03 05:36:56;;;;;;;0.00;0.00;;;18.70;69.80;;;;;;5080641;22;115304;-62
2022/07/03 05:41:20;;;;;;;0.00;0.00;;;18.90;69.90;;;;;;5080649;22;115270;-60
2022/07/03 05:43:23;;;;;;;0.00;0.00;;;19.00;69.70;;;;;;5081037;22;114636;-60
2022/07/03 05:45:26;;;;;;;0.00;0.00;;;19.10;69.70;;;;;;5079134;22;113866;-60
2022/07/03 05:47:31;;;;;;;0.00;0.00;;;19.10;69.50;;;;;;5080068;22;114804;-60
2022/07/03 05:49:34;;;;;;;0.05;0.00;;;19.20;68.90;;;;;;5080373;22;114705;-60
2022/07/03 05:51:37;;;;;;;0.00;0.00;;;19.10;68.60;;;;;;5054331;23;116039;-60
2022/07/03 05:53:40;;;;;;;0.00;0.00;;;19.10;68.30;;;;;;5079226;22;116412;-60
2022/07/03 05:55:43;;;;;;;0.00;0.00;;;19.10;68.10;;;;;;5080246;22;115127;-60
2022/07/03 05:57:46;;;;;;;0.00;0.00;;;19.10;68.10;;;;;;5081129;22;115239;-60
2022/07/03 05:59:49;;;;;;;0.00;0.00;;;19.00;68.00;;;;;;5079801;22;114931;-60
2022/07/03 06:01:53;;;;;;;0.00;0.00;;;19.00;68.10;;;;;;5053873;23;115326;-60
2022/07/03 06:03:57;;;;;;;0.00;0.00;;;19.00;68.10;;;;;;5079204;22;114621;-60
2022/07/03 06:06:01;;;;;;;0.00;0.00;;;19.00;68.10;;;;;;5081103;22;114944;-60
2022/07/03 06:08:05;;;;;;;0.00;0.00;;;18.90;68.00;;;;;;5080820;22;115299;-60
2022/07/03 06:10:08;;;;;;;0.00;0.00;;;18.90;68.10;;;;;;5080459;22;114731;-60
2022/07/03 06:12:12;;;;;;;0.00;0.00;;;18.90;68.10;;;;;;5079064;22;113916;-60
2022/07/03 06:14:15;;;;;;;0.00;0.00;;;18.90;68.10;;;;;;5080537;22;115930;-60
2022/07/03 06:16:18;;;;;;;0.00;0.00;;;18.90;68.10;;;;;;5080578;22;115793;-60
2022/07/03 06:18:21;;;;;;;0.00;0.00;;;18.90;68.30;;;;;;5079349;22;114755;-60
2022/07/03 06:20:26;;;;;;;0.00;0.00;;;19.00;69.30;;;;;;5055034;23;113874;-60
2022/07/03 06:22:29;;;;;;;0.00;0.00;;;19.20;68.90;;;;;;5080442;22;114846;-60
2022/07/03 06:24:32;;;;;;;0.00;0.00;;;19.70;68.70;;;;;;5079319;22;113944;-60
2022/07/03 06:26:35;;;;;;;0.00;0.00;;;20.30;67.80;;;;;;5080415;22;114706;-60
2022/07/03 06:28:38;;;;;;;0.00;0.00;;;21.00;66.40;;;;;;5079450;22;114478;-60
2022/07/03 06:30:41;;;;;;;0.00;0.00;;;21.70;65.00;;;;;;5080510;22;114680;-60
2022/07/03 06:32:45;;;;;;;0.00;0.00;;;22.40;63.00;;;;;;5080507;22;115423;-60
2022/07/03 06:34:48;;;;;;;0.00;0.00;;;22.90;61.30;;;;;;5079843;22;114155;-60
2022/07/03 06:36:52;;;;;;;0.00;0.00;;;23.50;59.90;;;;;;5079568;22;114492;-60
2022/07/03 06:38:55;;;;;;;0.00;0.00;;;24.00;58.00;;;;;;5080023;22;115508;-60
2022/07/03 06:40:58;;;;;;;0.00;0.00;;;24.40;56.90;;;;;;5079776;22;114790;-60
2022/07/03 06:43:01;;;;;;;0.00;0.00;;;24.90;56.00;;;;;;5080469;22;114792;-60
2022/07/03 06:45:05;;;;;;;0.00;0.00;;;25.50;54.40;;;;;;5078853;22;114337;-60
2022/07/03 06:47:08;;;;;;;0.00;0.00;;;26.00;52.80;;;;;;5080629;22;114756;-61
2022/07/03 06:49:11;;;;;;;0.00;0.00;;;26.50;51.60;;;;;;5079799;22;114950;-60
2022/07/03 06:51:14;;;;;;;0.00;0.00;;;26.90;50.60;;;;;;5078912;22;114703;-60
2022/07/03 06:53:20;;;;;;;0.00;0.00;;;27.10;49.70;;;;;;5080753;22;115145;-61
2022/07/03 06:55:23;;;;;;;0.00;0.00;;;27.00;48.70;;;;;;5080502;22;116111;-60
2022/07/03 06:57:27;;;;;;;0.00;0.00;;;27.20;48.10;;;;;;5080564;22;114645;-60
2022/07/03 06:59:30;;;;;;;0.00;0.00;;;27.40;47.20;;;;;;5078140;22;114953;-60
2022/07/03 07:01:33;;;;;;;0.00;0.00;;;27.60;46.20;;;;;;5080416;22;114905;-60
2022/07/03 07:03:36;;;;;;;0.00;0.00;;;27.90;45.30;;;;;;5080864;22;114811;-60
2022/07/03 07:05:39;;;;;;;0.00;0.00;;;28.20;44.60;;;;;;5080309;22;114933;-60
2022/07/03 07:07:43;;;;;;;0.00;0.00;;;28.40;43.90;;;;;;5078620;22;113886;-61
2022/07/03 07:09:48;;;;;;;0.00;0.00;;;28.30;43.40;;;;;;5079553;22;114841;-60
2022/07/03 07:11:51;;;;;;;0.00;0.00;;;28.20;43.30;;;;;;5080375;22;114695;-60
2022/07/03 07:13:55;;;;;;;0.00;0.00;;;28.10;43.50;;;;;;5080472;22;114392;-61
2022/07/03 07:15:58;;;;;;;0.00;0.00;;;28.10;43.30;;;;;;5081137;22;114641;-61
2022/07/03 07:18:01;;;;;;;0.00;0.00;;;28.20;43.20;;;;;;5080362;22;114980;-61
2022/07/03 07:20:05;;;;;;;0.00;0.00;;;28.50;43.30;;;;;;5079684;22;114010;-61
2022/07/03 07:22:08;;;;;;;0.00;0.00;;;28.90;42.70;;;;;;5080062;22;114785;-61
2022/07/03 07:24:11;;;;;;;0.00;0.00;;;29.20;42.10;;;;;;5054196;23;117504;-61
2022/07/03 07:26:18;;;;;;;0.00;0.00;;;29.30;41.60;;;;;;5080221;22;115286;-61
2022/07/03 07:28:21;;;;;;;0.00;0.00;;;29.40;40.80;;;;;;5078114;22;113907;-61
2022/07/03 07:30:24;;;;;;;0.00;0.00;;;29.60;41.10;;;;;;5080967;22;114446;-61
2022/07/03 07:32:27;;;;;;;0.00;0.00;;;29.90;40.60;;;;;;5079955;22;115258;-61
2022/07/03 07:34:30;;;;;;;0.00;0.00;;;30.20;39.70;;;;;;5080324;22;114826;-61
2022/07/03 07:36:33;;;;;;;0.00;0.00;;;30.50;39.20;;;;;;5081106;22;115138;-61
2022/07/03 07:38:36;;;;;;;0.00;0.00;;;30.70;38.80;;;;;;5079975;22;113953;-61
2022/07/03 07:40:39;;;;;;;0.00;0.00;;;31.10;38.50;;;;;;5081063;22;115218;-61
2022/07/03 07:42:44;;;;;;;0.00;0.00;;;31.50;38.10;;;;;;5080485;22;113898;-61
2022/07/03 07:44:47;;;;;;;0.00;0.00;;;31.60;37.30;;;;;;5080676;22;114181;-61
2022/07/03 07:46:50;;;;;;;0.00;0.00;;;31.40;37.30;;;;;;5081479;22;114889;-61
2022/07/03 07:48:53;;;;;;;0.00;0.00;;;31.40;37.60;;;;;;5082371;22;114657;-61
2022/07/03 07:50:57;;;;;;;0.00;0.00;;;31.50;38.00;;;;;;5080485;22;114759;-61
2022/07/03 07:53:00;;;;;;;0.00;0.00;;;31.90;37.80;;;;;;5079427;22;114148;-61
2022/07/03 07:55:05;;;;;;;0.00;0.00;;;32.30;36.60;;;;;;5080810;22;115365;-61
2022/07/03 07:57:08;;;;;;;0.00;0.00;;;32.60;36.00;;;;;;5080613;22;113982;-61
2022/07/03 07:59:12;;;;;;;0.00;0.00;;;32.70;35.00;;;;;;5079866;22;114618;-61
2022/07/03 08:05:57;;;;;;;0.00;0.00;;;32.40;34.10;;;;;;5081331;22;113990;-61
2022/07/03 08:08:00;;;;;;;0.00;0.00;;;32.40;34.80;;;;;;5080843;22;114866;-61
2022/07/03 08:10:04;;;;;;;0.00;0.00;;;32.60;34.10;;;;;;5080839;22;114873;-61
2022/07/03 08:12:08;;;;;;;0.00;0.00;;;32.80;33.90;;;;;;5080320;22;114852;-61
2022/07/03 08:14:12;;;;;;;0.00;0.00;;;33.00;33.30;;;;;;5080409;22;114055;-61
2022/07/03 08:16:17;;;;;;;0.00;0.00;;;33.10;32.80;;;;;;5079643;22;114802;-61
2022/07/03 08:18:20;;;;;;;0.00;0.00;;;33.20;32.40;;;;;;5081000;22;114788;-59
2022/07/03 08:20:23;;;;;;;0.00;0.00;;;33.20;32.00;;;;;;5080458;22;114993;-61
2022/07/03 08:22:30;;;;;;;0.00;0.00;;;33.20;31.60;;;;;;5081242;22;115068;-61
2022/07/03 08:24:44;;;;;;;0.00;0.00;;;33.20;32.10;;;;;;5080659;22;114016;-61
2022/07/03 08:26:47;;;;;;;0.00;0.00;;;33.20;31.50;;;;;;5081346;22;114374;-61
2022/07/03 08:28:50;;;;;;;0.00;0.00;;;33.00;31.30;;;;;;5080259;22;114154;-61
2022/07/03 08:30:55;;;;;;;0.00;0.00;;;33.10;31.30;;;;;;5080974;22;114844;-61
2022/07/03 08:32:59;;;;;;;0.00;0.00;;;33.30;31.30;;;;;;5079710;22;113811;-61
2022/07/03 08:35:02;;;;;;;0.00;0.00;;;33.50;31.50;;;;;;5080339;22;113845;-60
2022/07/03 08:37:05;;;;;;;0.00;0.00;;;33.60;31.20;;;;;;5080643;22;113955;-59
2022/07/03 08:39:09;;;;;;;0.00;0.00;;;33.90;31.10;;;;;;5080123;22;114148;-59
2022/07/03 08:41:15;;;;;;;0.00;0.00;;;33.80;31.10;;;;;;5080395;22;115025;-61
2022/07/03 08:43:19;;;;;;;0.00;0.00;;;33.60;31.20;;;;;;5081325;22;114912;-61
2022/07/03 08:45:26;;;;;;;0.00;0.00;;;33.50;31.50;;;;;;5081122;22;114949;-61
2022/07/03 08:47:33;;;;;;;0.00;0.00;;;33.40;31.10;;;;;;5080006;22;114654;-62
2022/07/03 08:49:36;;;;;;;0.00;0.00;;;33.10;30.80;;;;;;5081199;22;115013;-61
2022/07/03 08:51:42;;;;;;;0.00;0.00;;;32.70;31.50;;;;;;5080721;22;116078;-61
2022/07/03 08:53:48;;;;;;;0.00;0.00;;;32.80;31.50;;;;;;5080279;22;116004;-61
2022/07/03 08:55:51;;;;;;;0.00;0.00;;;32.90;31.40;;;;;;5081127;22;114767;-61
2022/07/03 08:57:56;;;;;;;0.00;0.00;;;33.00;31.20;;;;;;5080630;22;114838;-61
2022/07/03 09:00:04;;;;;;;0.00;0.00;;;33.10;30.90;;;;;;5080826;22;113887;-61
2022/07/03 09:02:07;;;;;;;0.00;0.00;;;33.00;30.70;;;;;;5080313;22;114866;-61
2022/07/03 09:04:13;;;;;;;0.00;0.00;;;33.00;31.60;;;;;;5080851;22;114687;-61
2022/07/03 09:06:18;;;;;;;0.00;0.00;;;33.10;31.60;;;;;;5080826;22;114923;-61
2022/07/03 09:08:23;;;;;;;0.00;0.00;;;33.00;31.10;;;;;;5080992;22;114652;-61
2022/07/03 09:10:26;;;;;;;0.00;0.00;;;32.80;31.00;;;;;;5079303;22;113989;-59
2022/07/03 09:12:32;;;;;;;0.00;0.00;;;32.80;31.30;;;;;;5081152;22;115081;-60
2022/07/03 09:14:35;;;;;;;0.00;0.00;;;33.00;31.10;;;;;;5079946;22;113930;-60
2022/07/03 09:16:38;;;;;;;0.00;0.00;;;33.40;31.40;;;;;;5079799;22;114027;-60
2022/07/03 09:18:43;;;;;;;0.00;0.00;;;33.80;31.10;;;;;;5080544;22;114039;-60
2022/07/03 09:20:48;;;;;;;0.00;0.00;;;34.00;31.00;;;;;;5081106;22;115922;-60
2022/07/03 09:22:51;;;;;;;0.00;0.00;;;34.30;30.80;;;;;;5079857;22;114403;-60
2022/07/03 09:25:03;;;;;;;0.00;0.00;;;34.50;31.00;;;;;;5081121;22;115475;-60
2022/07/03 09:27:11;;;;;;;0.00;0.00;;;34.50;31.40;;;;;;5080860;22;114383;-60
2022/07/03 09:29:14;;;;;;;0.00;0.00;;;34.70;31.80;;;;;;5080902;22;114003;-61
2022/07/03 09:31:18;;;;;;;0.00;0.00;;;34.70;32.20;;;;;;5079867;22;113924;-60
2022/07/03 09:33:21;;;;;;;0.00;0.00;;;34.80;32.20;;;;;;5080469;22;115538;-61
2022/07/03 09:35:27;;;;;;;0.00;0.00;;;34.50;32.20;;;;;;5078523;22;113796;-60
2022/07/03 09:37:33;;;;;;;0.00;0.00;;;34.20;32.20;;;;;;5081338;22;114964;-60
2022/07/03 09:39:37;;;;;;;0.00;0.00;;;33.70;32.30;;;;;;5080482;22;113650;-60
2022/07/03 09:41:52;;;;;;;0.00;0.00;;;32.90;32.20;;;;;;5080509;22;114659;-60
2022/07/03 09:43:57;;;;;;;0.00;0.00;;;32.60;32.60;;;;;;5081042;22;114895;-60
2022/07/03 09:46:01;;;;;;;0.00;0.00;;;32.30;32.20;;;;;;5080212;22;114453;-60
2022/07/03 09:48:05;;;;;;;0.00;0.00;;;32.40;32.00;;;;;;5081011;22;116011;-60
2022/07/03 09:50:29;;;;;;;0.00;0.00;;;32.30;31.90;;;;;;5081336;22;114729;-60
2022/07/03 09:52:37;;;;;;;0.00;0.00;;;32.50;31.90;;;;;;5079598;22;113935;-60
2022/07/03 09:54:41;;;;;;;0.00;0.00;;;32.80;31.90;;;;;;5081163;22;115676;-61
2022/07/03 09:56:45;;;;;;;0.10;0.00;;;33.10;32.10;;;;;;5080161;22;114723;-60
2022/07/03 09:59:11;;;;;;;0.00;0.00;;;33.10;32.20;;;;;;5080160;22;114912;-60
2022/07/03 10:01:18;;;;;;;0.00;0.00;;;32.40;31.80;;;;;;5053667;23;115161;-60
2022/07/03 10:03:22;;;;;;;0.00;0.00;;;31.70;32.80;;;;;;5079392;22;114029;-60
2022/07/03 10:05:27;;;;;;;0.00;0.00;;;31.50;32.90;;;;;;5080778;22;114945;-60
2022/07/03 10:07:30;;;;;;;0.00;0.00;;;31.60;33.10;;;;;;5080524;22;115358;-60
2022/07/03 10:09:35;;;;;;;0.00;0.00;;;31.60;33.00;;;;;;5080365;22;114842;-60
2022/07/03 10:11:39;;;;;;;0.00;0.00;;;31.50;32.80;;;;;;5080657;22;114869;-60
2022/07/03 10:13:42;;;;;;;0.00;0.00;;;31.70;33.10;;;;;;5080413;22;114630;-60
2022/07/03 10:15:46;;;;;;;0.00;0.00;;;31.80;32.70;;;;;;5081142;22;115926;-60
2022/07/03 10:17:50;;;;;;;0.00;0.00;;;32.00;32.50;;;;;;5080930;22;114706;-60
2022/07/03 10:19:54;;;;;;;0.00;0.00;;;32.30;32.60;;;;;;5079891;22;114804;-60
2022/07/03 10:21:59;;;;;;;0.00;0.00;;;32.70;32.50;;;;;;5080144;22;115568;-60
2022/07/03 10:24:03;;;;;;;0.00;0.00;;;32.90;32.20;;;;;;5079377;22;113867;-61
2022/07/03 10:26:09;;;;;;;0.00;0.00;;;33.20;32.20;;;;;;5080630;22;114801;-60
2022/07/03 10:28:13;;;;;;;0.00;0.00;;;33.10;32.00;;;;;;5079316;22;113945;-60
2022/07/03 10:30:17;;;;;;;0.00;0.00;;;32.80;33.00;;;;;;5080993;22;114896;-60
2022/07/03 10:32:21;;;;;;;0.00;0.00;;;32.50;33.80;;;;;;5079931;22;113807;-60
2022/07/03 10:34:27;;;;;;;0.00;0.00;;;32.20;34.30;;;;;;5079998;22;114726;-60
2022/07/03 10:36:33;;;;;;;0.00;0.00;;;31.60;34.60;;;;;;5080089;22;115231;-60
2022/07/03 10:38:40;;;;;;;0.00;0.00;;;31.10;35.20;;;;;;5079683;22;113671;-60
2022/07/03 10:46:09;;;;;;;0.00;0.00;;;29.10;37.90;;;;;;5079883;22;115145;-60
2022/07/03 10:48:12;;;;;;;;;;;28.40;40.20;;;;;;5080426;22;115038;-60
2022/07/03 10:50:17;;;;;;;0.00;0.00;;;27.90;41.00;;;;;;5082361;22;116107;-59
2022/07/03 10:52:20;;;;;;;0.00;0.00;;;27.70;39.90;;;;;;5080778;22;115253;-60
2022/07/03 10:54:24;;;;;;;0.00;0.00;;;27.60;40.80;;;;;;5079561;22;115094;-60
2022/07/03 10:56:27;;;;;;;0.00;0.00;;;27.40;41.50;;;;;;5080548;22;114882;-60
2022/07/03 10:58:32;;;;;;;0.00;0.00;;;27.40;42.20;;;;;;5080498;22;114883;-60